sensor_id;sensor_type;location;lat;lon;timestamp;P1;durP1;ratioP1;P2;durP2;ratioP2
58697;SDS011;44475;53.206;-6.106;2024-01-16T00:00:37;12.23;;;3.97;;
58697;SDS011;44475;53.206;-6.106;2024-01-16T00:03:05;8.52;;;3.80;;
58697;SDS011;44475;53.206;-6.106;2024-01-16T00:13:08;6.57;;;3.10;;
58697;SDS011;44475;53.206;-6.106;2024-01-16T00:15:35;8.30;;;3.72;;
58697;SDS011;44475;53.206;-6.106;2024-01-16T00:18:07;14.77;;;3.50;;
58697;SDS011;44475;53.206;-6.106;2024-01-16T00:20:45;7.82;;;3.20;;
58697;SDS011;44475;53.206;-6.106;2024-01-16T00:23:11;6.20;;;3.10;;
58697;SDS011;44475;53.206;-6.106;2024-01-16T00:25:38;7.38;;;3.33;;
58697;SDS011;44475;53.206;-6.106;2024-01-16T00:28:04;5.50;;;3.03;;
58697;SDS011;44475;53.206;-6.106;2024-01-16T00:30:31;7.55;;;3.20;;
58697;SDS011;44475;53.206;-6.106;2024-01-16T00:32:58;6.75;;;2.92;;
58697;SDS011;44475;53.206;-6.106;2024-01-16T00:35:25;4.50;;;2.88;;
58697;SDS011;44475;53.206;-6.106;2024-01-16T00:37:54;6.28;;;3.47;;
58697;SDS011;44475;53.206;-6.106;2024-01-16T00:40:20;6.57;;;3.00;;
58697;SDS011;44475;53.206;-6.106;2024-01-16T00:42:47;4.40;;;2.80;;
58697;SDS011;44475;53.206;-6.106;2024-01-16T00:45:13;5.97;;;2.80;;
58697;SDS011;44475;53.206;-6.106;2024-01-16T00:47:40;4.35;;;2.47;;
58697;SDS011;44475;53.206;-6.106;2024-01-16T00:50:06;5.68;;;2.88;;
58697;SDS011;44475;53.206;-6.106;2024-01-16T00:52:34;4.82;;;2.80;;
58697;SDS011;44475;53.206;-6.106;2024-01-16T00:55:02;5.82;;;2.70;;
58697;SDS011;44475;53.206;-6.106;2024-01-16T00:57:29;4.75;;;2.67;;
58697;SDS011;44475;53.206;-6.106;2024-01-16T00:59:56;5.50;;;2.78;;
58697;SDS011;44475;53.206;-6.106;2024-01-16T01:02:23;10.02;;;2.70;;
58697;SDS011;44475;53.206;-6.106;2024-01-16T01:04:49;4.35;;;2.50;;
58697;SDS011;44475;53.206;-6.106;2024-01-16T01:07:16;5.95;;;2.35;;
58697;SDS011;44475;53.206;-6.106;2024-01-16T01:09:42;4.45;;;2.50;;
58697;SDS011;44475;53.206;-6.106;2024-01-16T01:12:08;5.18;;;2.45;;
58697;SDS011;44475;53.206;-6.106;2024-01-16T01:14:35;5.03;;;2.60;;
58697;SDS011;44475;53.206;-6.106;2024-01-16T01:17:02;4.65;;;2.60;;
58697;SDS011;44475;53.206;-6.106;2024-01-16T01:19:28;3.50;;;2.20;;
58697;SDS011;44475;53.206;-6.106;2024-01-16T01:21:55;5.28;;;2.55;;
58697;SDS011;44475;53.206;-6.106;2024-01-16T01:24:21;3.70;;;2.45;;
58697;SDS011;44475;53.206;-6.106;2024-01-16T01:26:48;6.07;;;2.22;;
58697;SDS011;44475;53.206;-6.106;2024-01-16T01:29:14;4.78;;;2.40;;
58697;SDS011;44475;53.206;-6.106;2024-01-16T01:31:45;4.72;;;2.50;;
58697;SDS011;44475;53.206;-6.106;2024-01-16T01:34:15;3.55;;;2.25;;
58697;SDS011;44475;53.206;-6.106;2024-01-16T01:36:43;5.05;;;2.20;;
58697;SDS011;44475;53.206;-6.106;2024-01-16T01:39:09;4.78;;;2.50;;
58697;SDS011;44475;53.206;-6.106;2024-01-16T01:41:36;3.28;;;2.00;;
58697;SDS011;44475;53.206;-6.106;2024-01-16T01:44:03;5.10;;;2.50;;
58697;SDS011;44475;53.206;-6.106;2024-01-16T01:46:29;3.80;;;2.50;;
58697;SDS011;44475;53.206;-6.106;2024-01-16T01:49:00;3.55;;;2.00;;
58697;SDS011;44475;53.206;-6.106;2024-01-16T01:51:27;4.70;;;2.10;;
58697;SDS011;44475;53.206;-6.106;2024-01-16T01:53:54;3.53;;;2.00;;
58697;SDS011;44475;53.206;-6.106;2024-01-16T01:56:23;4.13;;;2.20;;
58697;SDS011;44475;53.206;-6.106;2024-01-16T01:58:52;3.78;;;2.00;;
58697;SDS011;44475;53.206;-6.106;2024-01-16T02:01:21;3.38;;;2.10;;
58697;SDS011;44475;53.206;-6.106;2024-01-16T02:03:49;5.50;;;2.13;;
58697;SDS011;44475;53.206;-6.106;2024-01-16T02:06:17;3.97;;;2.10;;
58697;SDS011;44475;53.206;-6.106;2024-01-16T02:08:44;3.63;;;1.85;;
58697;SDS011;44475;53.206;-6.106;2024-01-16T02:11:11;3.45;;;2.03;;
58697;SDS011;44475;53.206;-6.106;2024-01-16T02:13:37;3.17;;;1.90;;
58697;SDS011;44475;53.206;-6.106;2024-01-16T02:16:04;2.75;;;1.90;;
58697;SDS011;44475;53.206;-6.106;2024-01-16T02:18:31;4.00;;;1.80;;
58697;SDS011;44475;53.206;-6.106;2024-01-16T02:20:59;4.07;;;2.03;;
58697;SDS011;44475;53.206;-6.106;2024-01-16T02:23:28;9.68;;;2.50;;
58697;SDS011;44475;53.206;-6.106;2024-01-16T02:25:56;4.30;;;2.40;;
58697;SDS011;44475;53.206;-6.106;2024-01-16T02:28:22;5.78;;;2.30;;
58697;SDS011;44475;53.206;-6.106;2024-01-16T02:30:49;3.72;;;2.10;;
58697;SDS011;44475;53.206;-6.106;2024-01-16T02:33:15;4.55;;;1.80;;
58697;SDS011;44475;53.206;-6.106;2024-01-16T02:35:42;3.78;;;2.00;;
58697;SDS011;44475;53.206;-6.106;2024-01-16T02:38:08;4.82;;;1.95;;
58697;SDS011;44475;53.206;-6.106;2024-01-16T02:40:35;2.40;;;1.75;;
58697;SDS011;44475;53.206;-6.106;2024-01-16T02:43:01;3.80;;;1.80;;
58697;SDS011;44475;53.206;-6.106;2024-01-16T02:45:27;2.65;;;1.90;;
58697;SDS011;44475;53.206;-6.106;2024-01-16T02:47:54;2.95;;;2.00;;
58697;SDS011;44475;53.206;-6.106;2024-01-16T02:50:20;2.90;;;1.80;;
58697;SDS011;44475;53.206;-6.106;2024-01-16T02:52:46;2.88;;;1.80;;
58697;SDS011;44475;53.206;-6.106;2024-01-16T02:55:13;2.67;;;1.80;;
58697;SDS011;44475;53.206;-6.106;2024-01-16T02:57:39;3.20;;;1.80;;
58697;SDS011;44475;53.206;-6.106;2024-01-16T03:00:06;2.78;;;1.70;;
58697;SDS011;44475;53.206;-6.106;2024-01-16T03:02:33;2.72;;;1.60;;
58697;SDS011;44475;53.206;-6.106;2024-01-16T03:05:01;3.80;;;1.83;;
58697;SDS011;44475;53.206;-6.106;2024-01-16T03:07:30;3.15;;;1.77;;
58697;SDS011;44475;53.206;-6.106;2024-01-16T03:09:57;2.58;;;1.63;;
58697;SDS011;44475;53.206;-6.106;2024-01-16T03:12:23;2.72;;;1.67;;
58697;SDS011;44475;53.206;-6.106;2024-01-16T03:14:50;2.42;;;1.70;;
58697;SDS011;44475;53.206;-6.106;2024-01-16T03:17:18;3.75;;;1.77;;
58697;SDS011;44475;53.206;-6.106;2024-01-16T03:19:45;3.20;;;1.73;;
58697;SDS011;44475;53.206;-6.106;2024-01-16T03:22:11;3.95;;;2.00;;
58697;SDS011;44475;53.206;-6.106;2024-01-16T03:24:38;1.95;;;1.55;;
58697;SDS011;44475;53.206;-6.106;2024-01-16T03:27:04;2.08;;;1.60;;
58697;SDS011;44475;53.206;-6.106;2024-01-16T03:29:31;2.28;;;1.60;;
58697;SDS011;44475;53.206;-6.106;2024-01-16T03:31:59;2.80;;;1.60;;
58697;SDS011;44475;53.206;-6.106;2024-01-16T03:34:26;2.70;;;1.70;;
58697;SDS011;44475;53.206;-6.106;2024-01-16T03:36:52;2.25;;;1.58;;
58697;SDS011;44475;53.206;-6.106;2024-01-16T03:39:19;4.13;;;1.70;;
58697;SDS011;44475;53.206;-6.106;2024-01-16T03:41:45;2.80;;;1.52;;
58697;SDS011;44475;53.206;-6.106;2024-01-16T03:44:12;2.08;;;1.50;;
58697;SDS011;44475;53.206;-6.106;2024-01-16T03:46:38;3.22;;;1.60;;
58697;SDS011;44475;53.206;-6.106;2024-01-16T03:49:04;2.72;;;1.63;;
58697;SDS011;44475;53.206;-6.106;2024-01-16T03:51:31;2.15;;;1.40;;
58697;SDS011;44475;53.206;-6.106;2024-01-16T03:53:57;3.40;;;1.58;;
58697;SDS011;44475;53.206;-6.106;2024-01-16T03:56:23;2.88;;;1.70;;
58697;SDS011;44475;53.206;-6.106;2024-01-16T03:58:50;2.45;;;1.55;;
58697;SDS011;44475;53.206;-6.106;2024-01-16T04:01:16;1.67;;;1.40;;
58697;SDS011;44475;53.206;-6.106;2024-01-16T04:03:42;2.65;;;1.50;;
58697;SDS011;44475;53.206;-6.106;2024-01-16T04:06:15;1.98;;;1.60;;
58697;SDS011;44475;53.206;-6.106;2024-01-16T04:08:42;2.13;;;1.50;;
58697;SDS011;44475;53.206;-6.106;2024-01-16T04:11:13;3.08;;;1.40;;
58697;SDS011;44475;53.206;-6.106;2024-01-16T04:13:41;1.70;;;1.40;;
58697;SDS011;44475;53.206;-6.106;2024-01-16T04:16:09;2.58;;;1.60;;
58697;SDS011;44475;53.206;-6.106;2024-01-16T04:18:42;3.78;;;1.50;;
58697;SDS011;44475;53.206;-6.106;2024-01-16T04:21:10;2.65;;;1.58;;
58697;SDS011;44475;53.206;-6.106;2024-01-16T04:23:38;2.58;;;1.60;;
58697;SDS011;44475;53.206;-6.106;2024-01-16T04:26:06;1.95;;;1.33;;
58697;SDS011;44475;53.206;-6.106;2024-01-16T04:28:34;1.70;;;1.50;;
58697;SDS011;44475;53.206;-6.106;2024-01-16T04:31:05;2.33;;;1.50;;
58697;SDS011;44475;53.206;-6.106;2024-01-16T04:33:34;2.45;;;1.40;;
58697;SDS011;44475;53.206;-6.106;2024-01-16T04:36:01;2.42;;;1.60;;
58697;SDS011;44475;53.206;-6.106;2024-01-16T04:38:30;1.88;;;1.30;;
58697;SDS011;44475;53.206;-6.106;2024-01-16T04:41:00;1.98;;;1.40;;
58697;SDS011;44475;53.206;-6.106;2024-01-16T04:43:27;2.47;;;1.40;;
58697;SDS011;44475;53.206;-6.106;2024-01-16T04:45:54;2.28;;;1.40;;
58697;SDS011;44475;53.206;-6.106;2024-01-16T04:48:22;2.25;;;1.40;;
58697;SDS011;44475;53.206;-6.106;2024-01-16T04:50:48;2.17;;;1.50;;
58697;SDS011;44475;53.206;-6.106;2024-01-16T04:53:15;2.15;;;1.30;;
58697;SDS011;44475;53.206;-6.106;2024-01-16T04:55:41;2.78;;;1.58;;
58697;SDS011;44475;53.206;-6.106;2024-01-16T04:58:09;1.33;;;1.20;;
58697;SDS011;44475;53.206;-6.106;2024-01-16T05:00:35;3.47;;;1.35;;
58697;SDS011;44475;53.206;-6.106;2024-01-16T05:03:05;1.45;;;1.17;;
58697;SDS011;44475;53.206;-6.106;2024-01-16T05:05:31;2.40;;;1.30;;
58697;SDS011;44475;53.206;-6.106;2024-01-16T05:08:00;1.48;;;1.38;;
58697;SDS011;44475;53.206;-6.106;2024-01-16T05:10:27;1.48;;;1.20;;
58697;SDS011;44475;53.206;-6.106;2024-01-16T05:12:54;2.08;;;1.30;;
58697;SDS011;44475;53.206;-6.106;2024-01-16T05:15:20;1.33;;;1.10;;
58697;SDS011;44475;53.206;-6.106;2024-01-16T05:17:47;1.42;;;1.25;;
58697;SDS011;44475;53.206;-6.106;2024-01-16T05:20:13;3.65;;;1.40;;
58697;SDS011;44475;53.206;-6.106;2024-01-16T05:22:40;2.28;;;1.30;;
58697;SDS011;44475;53.206;-6.106;2024-01-16T05:25:06;1.52;;;1.10;;
58697;SDS011;44475;53.206;-6.106;2024-01-16T05:27:33;1.70;;;1.20;;
58697;SDS011;44475;53.206;-6.106;2024-01-16T05:30:00;2.05;;;1.25;;
58697;SDS011;44475;53.206;-6.106;2024-01-16T05:32:26;1.92;;;1.40;;
58697;SDS011;44475;53.206;-6.106;2024-01-16T05:34:53;3.05;;;1.50;;
58697;SDS011;44475;53.206;-6.106;2024-01-16T05:37:19;1.52;;;1.10;;
58697;SDS011;44475;53.206;-6.106;2024-01-16T05:39:45;1.75;;;1.30;;
58697;SDS011;44475;53.206;-6.106;2024-01-16T05:42:12;1.77;;;1.40;;
58697;SDS011;44475;53.206;-6.106;2024-01-16T05:44:38;2.40;;;1.30;;
58697;SDS011;44475;53.206;-6.106;2024-01-16T05:47:04;2.30;;;1.20;;
58697;SDS011;44475;53.206;-6.106;2024-01-16T05:49:31;1.83;;;1.30;;
58697;SDS011;44475;53.206;-6.106;2024-01-16T05:51:57;3.10;;;1.30;;
58697;SDS011;44475;53.206;-6.106;2024-01-16T05:54:24;1.85;;;1.25;;
58697;SDS011;44475;53.206;-6.106;2024-01-16T05:56:50;1.60;;;1.23;;
58697;SDS011;44475;53.206;-6.106;2024-01-16T05:59:16;1.10;;;1.02;;
58697;SDS011;44475;53.206;-6.106;2024-01-16T06:01:42;2.00;;;1.20;;
58697;SDS011;44475;53.206;-6.106;2024-01-16T06:04:09;1.48;;;1.17;;
58697;SDS011;44475;53.206;-6.106;2024-01-16T06:06:35;2.25;;;1.20;;
58697;SDS011;44475;53.206;-6.106;2024-01-16T06:09:02;2.28;;;1.20;;
58697;SDS011;44475;53.206;-6.106;2024-01-16T06:11:33;3.40;;;1.20;;
58697;SDS011;44475;53.206;-6.106;2024-01-16T06:14:02;1.40;;;1.20;;
58697;SDS011;44475;53.206;-6.106;2024-01-16T06:16:28;1.50;;;1.13;;
58697;SDS011;44475;53.206;-6.106;2024-01-16T06:18:55;1.95;;;1.10;;
58697;SDS011;44475;53.206;-6.106;2024-01-16T06:21:22;1.85;;;1.20;;
58697;SDS011;44475;53.206;-6.106;2024-01-16T06:23:48;1.13;;;1.13;;
58697;SDS011;44475;53.206;-6.106;2024-01-16T06:26:15;1.88;;;1.17;;
58697;SDS011;44475;53.206;-6.106;2024-01-16T06:28:41;1.50;;;1.10;;
58697;SDS011;44475;53.206;-6.106;2024-01-16T06:31:08;1.95;;;1.20;;
58697;SDS011;44475;53.206;-6.106;2024-01-16T06:33:35;1.90;;;1.10;;
58697;SDS011;44475;53.206;-6.106;2024-01-16T06:36:02;1.10;;;1.10;;
58697;SDS011;44475;53.206;-6.106;2024-01-16T06:38:31;1.00;;;1.00;;
58697;SDS011;44475;53.206;-6.106;2024-01-16T06:40:58;1.65;;;1.20;;
58697;SDS011;44475;53.206;-6.106;2024-01-16T06:43:25;1.90;;;1.23;;
58697;SDS011;44475;53.206;-6.106;2024-01-16T06:45:52;1.35;;;1.25;;
58697;SDS011;44475;53.206;-6.106;2024-01-16T06:48:18;1.23;;;1.13;;
58697;SDS011;44475;53.206;-6.106;2024-01-16T06:50:44;1.60;;;1.10;;
58697;SDS011;44475;53.206;-6.106;2024-01-16T06:53:11;1.40;;;1.15;;
58697;SDS011;44475;53.206;-6.106;2024-01-16T06:55:38;1.77;;;1.20;;
58697;SDS011;44475;53.206;-6.106;2024-01-16T06:58:04;2.55;;;1.15;;
58697;SDS011;44475;53.206;-6.106;2024-01-16T07:00:30;1.17;;;1.08;;
58697;SDS011;44475;53.206;-6.106;2024-01-16T07:02:57;3.13;;;1.20;;
58697;SDS011;44475;53.206;-6.106;2024-01-16T07:05:23;1.10;;;1.00;;
58697;SDS011;44475;53.206;-6.106;2024-01-16T07:07:49;1.67;;;1.20;;
58697;SDS011;44475;53.206;-6.106;2024-01-16T07:10:16;1.42;;;1.08;;
58697;SDS011;44475;53.206;-6.106;2024-01-16T07:12:47;1.20;;;1.05;;
58697;SDS011;44475;53.206;-6.106;2024-01-16T07:15:14;1.23;;;1.10;;
58697;SDS011;44475;53.206;-6.106;2024-01-16T07:17:41;2.03;;;1.10;;
58697;SDS011;44475;53.206;-6.106;2024-01-16T07:20:07;1.75;;;1.13;;
58697;SDS011;44475;53.206;-6.106;2024-01-16T07:22:36;2.53;;;1.10;;
58697;SDS011;44475;53.206;-6.106;2024-01-16T07:25:05;1.95;;;1.20;;
58697;SDS011;44475;53.206;-6.106;2024-01-16T07:27:32;2.17;;;1.00;;
58697;SDS011;44475;53.206;-6.106;2024-01-16T07:29:59;2.03;;;1.20;;
58697;SDS011;44475;53.206;-6.106;2024-01-16T07:32:25;1.10;;;1.00;;
58697;SDS011;44475;53.206;-6.106;2024-01-16T07:34:52;12.63;;;1.38;;
58697;SDS011;44475;53.206;-6.106;2024-01-16T07:37:18;1.60;;;1.20;;
58697;SDS011;44475;53.206;-6.106;2024-01-16T07:39:44;7.70;;;1.50;;
58697;SDS011;44475;53.206;-6.106;2024-01-16T07:42:11;6.25;;;1.60;;
58697;SDS011;44475;53.206;-6.106;2024-01-16T07:44:37;4.75;;;1.63;;
58697;SDS011;44475;53.206;-6.106;2024-01-16T07:47:04;6.10;;;1.58;;
58697;SDS011;44475;53.206;-6.106;2024-01-16T07:49:30;3.83;;;1.50;;
58697;SDS011;44475;53.206;-6.106;2024-01-16T07:51:56;2.72;;;1.30;;
58697;SDS011;44475;53.206;-6.106;2024-01-16T07:54:23;3.55;;;1.38;;
58697;SDS011;44475;53.206;-6.106;2024-01-16T07:56:51;2.53;;;1.40;;
58697;SDS011;44475;53.206;-6.106;2024-01-16T07:59:17;3.80;;;1.40;;
58697;SDS011;44475;53.206;-6.106;2024-01-16T08:01:43;2.90;;;1.30;;
58697;SDS011;44475;53.206;-6.106;2024-01-16T08:04:11;2.97;;;1.45;;
58697;SDS011;44475;53.206;-6.106;2024-01-16T08:06:37;2.35;;;1.20;;
58697;SDS011;44475;53.206;-6.106;2024-01-16T08:09:03;3.53;;;1.30;;
58697;SDS011;44475;53.206;-6.106;2024-01-16T08:11:31;1.38;;;1.02;;
58697;SDS011;44475;53.206;-6.106;2024-01-16T08:13:59;2.95;;;1.20;;
58697;SDS011;44475;53.206;-6.106;2024-01-16T08:16:26;2.97;;;1.42;;
58697;SDS011;44475;53.206;-6.106;2024-01-16T08:18:52;2.53;;;1.40;;
58697;SDS011;44475;53.206;-6.106;2024-01-16T08:21:18;2.35;;;1.10;;
58697;SDS011;44475;53.206;-6.106;2024-01-16T08:23:44;1.63;;;1.27;;
58697;SDS011;44475;53.206;-6.106;2024-01-16T08:26:11;1.80;;;1.17;;
58697;SDS011;44475;53.206;-6.106;2024-01-16T08:28:37;1.83;;;1.20;;
58697;SDS011;44475;53.206;-6.106;2024-01-16T08:31:04;5.20;;;1.30;;
58697;SDS011;44475;53.206;-6.106;2024-01-16T08:33:30;4.30;;;1.20;;
58697;SDS011;44475;53.206;-6.106;2024-01-16T08:35:56;1.40;;;1.10;;
58697;SDS011;44475;53.206;-6.106;2024-01-16T08:38:23;3.47;;;1.30;;
58697;SDS011;44475;53.206;-6.106;2024-01-16T08:40:49;3.30;;;1.30;;
58697;SDS011;44475;53.206;-6.106;2024-01-16T08:43:15;2.72;;;1.20;;
58697;SDS011;44475;53.206;-6.106;2024-01-16T08:45:41;1.95;;;1.20;;
58697;SDS011;44475;53.206;-6.106;2024-01-16T08:48:08;3.35;;;1.38;;
58697;SDS011;44475;53.206;-6.106;2024-01-16T08:50:34;2.35;;;1.38;;
58697;SDS011;44475;53.206;-6.106;2024-01-16T08:53:00;1.75;;;1.20;;
58697;SDS011;44475;53.206;-6.106;2024-01-16T08:55:27;2.28;;;1.30;;
58697;SDS011;44475;53.206;-6.106;2024-01-16T08:57:53;1.98;;;1.20;;
58697;SDS011;44475;53.206;-6.106;2024-01-16T09:00:19;1.67;;;1.23;;
58697;SDS011;44475;53.206;-6.106;2024-01-16T09:02:46;1.20;;;1.10;;
58697;SDS011;44475;53.206;-6.106;2024-01-16T09:05:13;2.13;;;1.35;;
58697;SDS011;44475;53.206;-6.106;2024-01-16T09:07:40;1.55;;;1.30;;
58697;SDS011;44475;53.206;-6.106;2024-01-16T09:10:06;1.75;;;1.30;;
58697;SDS011;44475;53.206;-6.106;2024-01-16T09:12:33;1.67;;;1.20;;
58697;SDS011;44475;53.206;-6.106;2024-01-16T09:14:59;2.13;;;1.40;;
58697;SDS011;44475;53.206;-6.106;2024-01-16T09:17:26;1.30;;;1.20;;
58697;SDS011;44475;53.206;-6.106;2024-01-16T09:19:52;1.30;;;1.10;;
58697;SDS011;44475;53.206;-6.106;2024-01-16T09:22:18;1.42;;;1.20;;
58697;SDS011;44475;53.206;-6.106;2024-01-16T09:24:44;1.95;;;1.23;;
58697;SDS011;44475;53.206;-6.106;2024-01-16T09:27:11;2.30;;;1.30;;
58697;SDS011;44475;53.206;-6.106;2024-01-16T09:29:39;1.75;;;1.10;;
58697;SDS011;44475;53.206;-6.106;2024-01-16T09:32:05;1.45;;;1.20;;
58697;SDS011;44475;53.206;-6.106;2024-01-16T09:34:32;1.30;;;1.20;;
58697;SDS011;44475;53.206;-6.106;2024-01-16T09:36:58;1.13;;;1.02;;
58697;SDS011;44475;53.206;-6.106;2024-01-16T09:39:27;1.42;;;1.10;;
58697;SDS011;44475;53.206;-6.106;2024-01-16T09:41:56;3.63;;;1.25;;
58697;SDS011;44475;53.206;-6.106;2024-01-16T09:44:27;1.67;;;1.20;;
58697;SDS011;44475;53.206;-6.106;2024-01-16T09:46:54;1.15;;;1.10;;
58697;SDS011;44475;53.206;-6.106;2024-01-16T09:49:22;1.75;;;1.20;;
58697;SDS011;44475;53.206;-6.106;2024-01-16T09:51:49;1.90;;;1.27;;
58697;SDS011;44475;53.206;-6.106;2024-01-16T09:54:15;2.90;;;1.20;;
58697;SDS011;44475;53.206;-6.106;2024-01-16T09:56:42;1.80;;;1.10;;
58697;SDS011;44475;53.206;-6.106;2024-01-16T09:59:11;1.70;;;1.20;;
58697;SDS011;44475;53.206;-6.106;2024-01-16T10:01:43;1.50;;;1.10;;
58697;SDS011;44475;53.206;-6.106;2024-01-16T10:04:10;1.75;;;1.10;;
58697;SDS011;44475;53.206;-6.106;2024-01-16T10:06:36;1.10;;;1.00;;
58697;SDS011;44475;53.206;-6.106;2024-01-16T10:09:04;1.88;;;1.17;;
58697;SDS011;44475;53.206;-6.106;2024-01-16T10:11:31;2.05;;;1.20;;
58697;SDS011;44475;53.206;-6.106;2024-01-16T10:13:59;2.67;;;1.00;;
58697;SDS011;44475;53.206;-6.106;2024-01-16T10:19:22;1.55;;;1.23;;
58697;SDS011;44475;53.206;-6.106;2024-01-16T10:21:49;1.33;;;1.20;;
58697;SDS011;44475;53.206;-6.106;2024-01-16T10:24:16;2.00;;;1.05;;
58697;SDS011;44475;53.206;-6.106;2024-01-16T10:26:43;1.40;;;1.10;;
58697;SDS011;44475;53.206;-6.106;2024-01-16T10:29:09;3.63;;;1.20;;
58697;SDS011;44475;53.206;-6.106;2024-01-16T10:31:35;1.20;;;1.10;;
58697;SDS011;44475;53.206;-6.106;2024-01-16T10:34:15;1.55;;;1.10;;
58697;SDS011;44475;53.206;-6.106;2024-01-16T10:36:49;1.25;;;1.10;;
58697;SDS011;44475;53.206;-6.106;2024-01-16T10:39:17;1.73;;;1.10;;
58697;SDS011;44475;53.206;-6.106;2024-01-16T10:41:56;1.17;;;0.98;;
58697;SDS011;44475;53.206;-6.106;2024-01-16T10:44:24;1.35;;;1.10;;
58697;SDS011;44475;53.206;-6.106;2024-01-16T10:46:50;1.20;;;1.10;;
58697;SDS011;44475;53.206;-6.106;2024-01-16T10:49:16;1.58;;;1.10;;
58697;SDS011;44475;53.206;-6.106;2024-01-16T10:51:43;2.33;;;1.27;;
58697;SDS011;44475;53.206;-6.106;2024-01-16T10:54:12;1.20;;;1.10;;
58697;SDS011;44475;53.206;-6.106;2024-01-16T10:56:44;2.38;;;0.98;;
58697;SDS011;44475;53.206;-6.106;2024-01-16T11:02:19;1.20;;;1.10;;
58697;SDS011;44475;53.206;-6.106;2024-01-16T11:04:49;1.98;;;1.10;;
58697;SDS011;44475;53.206;-6.106;2024-01-16T11:07:18;1.10;;;1.00;;
58697;SDS011;44475;53.206;-6.106;2024-01-16T11:09:47;1.20;;;1.10;;
58697;SDS011;44475;53.206;-6.106;2024-01-16T11:12:15;2.08;;;1.35;;
58697;SDS011;44475;53.206;-6.106;2024-01-16T11:14:44;1.30;;;1.17;;
58697;SDS011;44475;53.206;-6.106;2024-01-16T11:17:16;1.40;;;1.13;;
58697;SDS011;44475;53.206;-6.106;2024-01-16T11:19:45;2.97;;;1.10;;
58697;SDS011;44475;53.206;-6.106;2024-01-16T11:22:13;1.25;;;1.15;;
58697;SDS011;44475;53.206;-6.106;2024-01-16T11:24:41;3.78;;;1.10;;
58697;SDS011;44475;53.206;-6.106;2024-01-16T11:27:07;1.20;;;1.10;;
58697;SDS011;44475;53.206;-6.106;2024-01-16T11:29:45;1.20;;;1.10;;
58697;SDS011;44475;53.206;-6.106;2024-01-16T11:32:32;1.20;;;1.10;;
58697;SDS011;44475;53.206;-6.106;2024-01-16T11:35:00;1.95;;;1.05;;
58697;SDS011;44475;53.206;-6.106;2024-01-16T11:37:27;1.90;;;1.20;;
58697;SDS011;44475;53.206;-6.106;2024-01-16T11:42:45;1.20;;;1.10;;
58697;SDS011;44475;53.206;-6.106;2024-01-16T11:48:15;1.33;;;1.15;;
58697;SDS011;44475;53.206;-6.106;2024-01-16T11:50:43;3.08;;;1.20;;
58697;SDS011;44475;53.206;-6.106;2024-01-16T11:53:10;1.70;;;1.20;;
58697;SDS011;44475;53.206;-6.106;2024-01-16T11:56:13;1.90;;;1.33;;
58697;SDS011;44475;53.206;-6.106;2024-01-16T11:59:07;1.67;;;1.08;;
58697;SDS011;44475;53.206;-6.106;2024-01-16T12:02:01;1.52;;;1.27;;
58697;SDS011;44475;53.206;-6.106;2024-01-16T12:07:00;1.83;;;1.20;;
58697;SDS011;44475;53.206;-6.106;2024-01-16T12:09:27;1.67;;;1.27;;
58697;SDS011;44475;53.206;-6.106;2024-01-16T12:12:00;2.10;;;1.33;;
58697;SDS011;44475;53.206;-6.106;2024-01-16T12:14:28;2.40;;;1.40;;
58697;SDS011;44475;53.206;-6.106;2024-01-16T12:19:37;1.48;;;1.38;;
58697;SDS011;44475;53.206;-6.106;2024-01-16T12:22:10;1.83;;;1.20;;
58697;SDS011;44475;53.206;-6.106;2024-01-16T12:24:39;2.38;;;1.20;;
58697;SDS011;44475;53.206;-6.106;2024-01-16T12:27:05;2.10;;;1.13;;
58697;SDS011;44475;53.206;-6.106;2024-01-16T12:29:33;1.30;;;1.20;;
58697;SDS011;44475;53.206;-6.106;2024-01-16T12:32:09;1.70;;;1.20;;
58697;SDS011;44475;53.206;-6.106;2024-01-16T12:34:48;3.20;;;1.23;;
58697;SDS011;44475;53.206;-6.106;2024-01-16T12:37:15;1.30;;;1.00;;
58697;SDS011;44475;53.206;-6.106;2024-01-16T12:39:42;2.63;;;1.42;;
58697;SDS011;44475;53.206;-6.106;2024-01-16T12:42:09;1.17;;;1.10;;
58697;SDS011;44475;53.206;-6.106;2024-01-16T12:44:37;3.40;;;1.50;;
58697;SDS011;44475;53.206;-6.106;2024-01-16T12:47:03;1.85;;;1.20;;
58697;SDS011;44475;53.206;-6.106;2024-01-16T12:49:30;1.20;;;1.10;;
58697;SDS011;44475;53.206;-6.106;2024-01-16T12:54:59;2.28;;;1.20;;
58697;SDS011;44475;53.206;-6.106;2024-01-16T12:57:27;2.67;;;1.30;;
58697;SDS011;44475;53.206;-6.106;2024-01-16T12:59:54;1.92;;;1.33;;
58697;SDS011;44475;53.206;-6.106;2024-01-16T13:02:22;1.77;;;1.30;;
58697;SDS011;44475;53.206;-6.106;2024-01-16T13:04:57;3.38;;;1.40;;
58697;SDS011;44475;53.206;-6.106;2024-01-16T13:07:24;2.42;;;1.38;;
58697;SDS011;44475;53.206;-6.106;2024-01-16T13:10:13;2.80;;;1.33;;
58697;SDS011;44475;53.206;-6.106;2024-01-16T13:12:43;2.20;;;1.40;;
58697;SDS011;44475;53.206;-6.106;2024-01-16T13:15:09;1.40;;;1.20;;
58697;SDS011;44475;53.206;-6.106;2024-01-16T13:17:41;1.77;;;1.13;;
58697;SDS011;44475;53.206;-6.106;2024-01-16T13:20:08;4.65;;;1.23;;
58697;SDS011;44475;53.206;-6.106;2024-01-16T13:22:35;4.65;;;1.20;;
58697;SDS011;44475;53.206;-6.106;2024-01-16T13:25:02;1.23;;;1.08;;
58697;SDS011;44475;53.206;-6.106;2024-01-16T13:27:30;4.95;;;1.38;;
58697;SDS011;44475;53.206;-6.106;2024-01-16T13:29:57;1.92;;;1.02;;
58697;SDS011;44475;53.206;-6.106;2024-01-16T13:32:23;2.35;;;1.13;;
58697;SDS011;44475;53.206;-6.106;2024-01-16T13:34:51;1.48;;;1.38;;
58697;SDS011;44475;53.206;-6.106;2024-01-16T13:37:19;2.10;;;1.30;;
58697;SDS011;44475;53.206;-6.106;2024-01-16T13:39:47;2.25;;;1.40;;
58697;SDS011;44475;53.206;-6.106;2024-01-16T13:42:13;1.25;;;1.13;;
58697;SDS011;44475;53.206;-6.106;2024-01-16T13:44:43;1.83;;;1.23;;
58697;SDS011;44475;53.206;-6.106;2024-01-16T13:47:10;1.70;;;1.27;;
58697;SDS011;44475;53.206;-6.106;2024-01-16T13:49:36;3.00;;;1.17;;
58697;SDS011;44475;53.206;-6.106;2024-01-16T13:52:02;2.42;;;1.30;;
58697;SDS011;44475;53.206;-6.106;2024-01-16T13:54:29;1.52;;;1.20;;
58697;SDS011;44475;53.206;-6.106;2024-01-16T13:56:55;1.60;;;1.02;;
58697;SDS011;44475;53.206;-6.106;2024-01-16T13:59:21;3.05;;;1.20;;
58697;SDS011;44475;53.206;-6.106;2024-01-16T14:01:48;1.92;;;1.30;;
58697;SDS011;44475;53.206;-6.106;2024-01-16T14:04:14;2.80;;;1.30;;
58697;SDS011;44475;53.206;-6.106;2024-01-16T14:06:40;1.40;;;1.20;;
58697;SDS011;44475;53.206;-6.106;2024-01-16T14:09:07;2.03;;;1.40;;
58697;SDS011;44475;53.206;-6.106;2024-01-16T14:11:34;1.73;;;1.20;;
58697;SDS011;44475;53.206;-6.106;2024-01-16T14:14:02;1.30;;;1.20;;
58697;SDS011;44475;53.206;-6.106;2024-01-16T14:16:30;2.28;;;1.20;;
58697;SDS011;44475;53.206;-6.106;2024-01-16T14:18:56;1.63;;;1.25;;
58697;SDS011;44475;53.206;-6.106;2024-01-16T14:21:23;2.38;;;1.50;;
58697;SDS011;44475;53.206;-6.106;2024-01-16T14:23:49;1.30;;;1.20;;
58697;SDS011;44475;53.206;-6.106;2024-01-16T14:26:15;1.27;;;1.08;;
58697;SDS011;44475;53.206;-6.106;2024-01-16T14:28:43;1.83;;;1.30;;
58697;SDS011;44475;53.206;-6.106;2024-01-16T14:31:09;1.20;;;1.10;;
58697;SDS011;44475;53.206;-6.106;2024-01-16T14:33:35;1.40;;;1.20;;
58697;SDS011;44475;53.206;-6.106;2024-01-16T14:36:02;1.52;;;1.20;;
58697;SDS011;44475;53.206;-6.106;2024-01-16T14:38:30;1.35;;;1.10;;
58697;SDS011;44475;53.206;-6.106;2024-01-16T14:40:56;1.88;;;1.20;;
58697;SDS011;44475;53.206;-6.106;2024-01-16T14:43:22;1.40;;;1.20;;
58697;SDS011;44475;53.206;-6.106;2024-01-16T14:45:49;1.98;;;1.15;;
58697;SDS011;44475;53.206;-6.106;2024-01-16T14:48:15;1.48;;;1.30;;
58697;SDS011;44475;53.206;-6.106;2024-01-16T14:50:41;1.77;;;1.35;;
58697;SDS011;44475;53.206;-6.106;2024-01-16T14:53:08;1.40;;;1.13;;
58697;SDS011;44475;53.206;-6.106;2024-01-16T14:55:34;1.65;;;1.20;;
58697;SDS011;44475;53.206;-6.106;2024-01-16T14:58:03;2.20;;;1.35;;
58697;SDS011;44475;53.206;-6.106;2024-01-16T15:00:29;3.00;;;1.25;;
58697;SDS011;44475;53.206;-6.106;2024-01-16T15:02:57;3.35;;;1.35;;